Terminal Aerodrome Forecast
Issued by NWS

Home | Current Version | Previous Version | Text Only | Print | Product List | Glossary On
Versions: 1 2 3 4 5 6 7 8 9 10 11 12 13 14 15
000
FTUS44 KOUN 230520
TAFHBR
TAF
KHBR 230520Z 2306/2406 15012KT P6SM SKC
     FM231400 18019G28KT P6SM SCT250
     FM231800 18024G33KT P6SM FEW060 SCT250
     FM240000 17026G30KT P6SM SCT060CB OVC250=

USA.gov is the U.S. government's official web portal to all federal, state and local government web resources and services.